createdAt,value
2022-11-19T00:01:26.414Z,98597.00
2022-11-19T00:03:54.489Z,98586.63
2022-11-19T00:06:23.220Z,98597.44
2022-11-19T00:08:51.161Z,98610.78
2022-11-19T00:11:41.001Z,98598.34
2022-11-19T00:14:09.482Z,98608.09
2022-11-19T00:16:37.437Z,98609.97
2022-11-19T00:19:05.418Z,98614.72
2022-11-19T00:21:33.391Z,98617.84
2022-11-19T00:24:01.344Z,98607.03
2022-11-19T00:26:29.284Z,98612.03
2022-11-19T00:28:57.214Z,98606.97
2022-11-19T00:31:26.528Z,98602.41
2022-11-19T00:33:55.302Z,98620.25
2022-11-19T00:36:23.359Z,98611.06
2022-11-19T00:38:51.325Z,98616.97
2022-11-19T00:41:19.357Z,98616.97
2022-11-19T00:43:50.211Z,98618.63
2022-11-19T00:46:18.824Z,98634.84
2022-11-19T00:48:48.502Z,98643.53
2022-11-19T00:51:16.511Z,98641.41
2022-11-19T00:53:44.462Z,98652.00
2022-11-19T00:56:13.355Z,98666.38
2022-11-19T00:58:41.317Z,98663.06
2022-11-19T01:01:09.740Z,98673.88
2022-11-19T01:03:38.417Z,98678.69
2022-11-19T01:06:08.239Z,98674.94
2022-11-19T01:08:36.317Z,98678.94
2022-11-19T01:11:07.891Z,98681.28
2022-11-19T01:13:34.840Z,98689.81
2022-11-19T01:16:02.856Z,98702.16
2022-11-19T01:18:30.969Z,98712.22
2022-11-19T01:20:58.929Z,98716.69
2022-11-19T01:23:28.235Z,98724.19
2022-11-19T01:25:56.130Z,98731.25
2022-11-19T01:28:24.076Z,98739.00
2022-11-19T01:30:52.057Z,98742.31
2022-11-19T01:33:20.012Z,98749.38
2022-11-19T01:35:56.237Z,98746.31
2022-11-19T01:38:24.181Z,98758.41
2022-11-19T01:40:53.527Z,98756.03
2022-11-19T01:43:21.481Z,98761.22
2022-11-19T01:45:54.504Z,98769.94
2022-11-19T01:48:24.760Z,98769.50
2022-11-19T01:50:54.036Z,98767.41
2022-11-19T01:53:22.327Z,98757.38
2022-11-19T01:55:50.261Z,98758.69
2022-11-19T01:58:21.112Z,98776.56
2022-11-19T02:00:49.035Z,98776.06
2022-11-19T02:03:17.152Z,98790.19
2022-11-19T02:05:45.109Z,98790.19
2022-11-19T02:08:38.492Z,98790.19
2022-11-19T02:11:28.864Z,98790.81
2022-11-19T02:14:03.216Z,98801.03
2022-11-19T02:16:34.315Z,98792.31
2022-11-19T02:19:04.331Z,98787.38
2022-11-19T02:21:33.672Z,98786.91
2022-11-19T02:24:47.112Z,98786.31
2022-11-19T02:27:41.395Z,98798.19
2022-11-19T02:30:12.217Z,98819.44
2022-11-19T02:32:55.173Z,98839.84
2022-11-19T02:35:28.202Z,98863.22
2022-11-19T02:37:58.827Z,98853.00
2022-11-19T02:40:27.796Z,98875.81
2022-11-19T02:43:00.791Z,98880.09
2022-11-19T02:45:31.177Z,98877.91
2022-11-19T02:48:01.246Z,98880.25
2022-11-19T02:50:30.050Z,98873.25
2022-11-19T02:52:58.003Z,98881.19
2022-11-19T02:55:25.956Z,98877.22
2022-11-19T02:57:56.569Z,98889.50
2022-11-19T03:00:41.802Z,98907.00
2022-11-19T03:03:29.416Z,98912.41
2022-11-19T03:05:59.484Z,98907.00
2022-11-19T03:08:27.613Z,98890.63
2022-11-19T03:11:00.524Z,98897.66
2022-11-19T03:13:54.137Z,98892.28
2022-11-19T03:16:40.997Z,98897.06
2022-11-19T03:19:14.540Z,98911.19
2022-11-19T03:21:45.326Z,98916.16
2022-11-19T03:24:15.187Z,98908.91
2022-11-19T03:26:44.667Z,98896.00
2022-11-19T03:29:12.891Z,98896.28
2022-11-19T03:31:42.238Z,98907.53
2022-11-19T03:34:13.413Z,98917.28
2022-11-19T03:36:42.647Z,98923.16
2022-11-19T03:39:11.819Z,98936.25
2022-11-19T03:41:40.630Z,98941.03
2022-11-19T03:44:10.370Z,98940.03
2022-11-19T03:46:38.266Z,98952.53
2022-11-19T03:49:06.177Z,98951.13
2022-11-19T03:51:38.131Z,98952.97
2022-11-19T03:54:06.202Z,98964.03
2022-11-19T03:56:34.348Z,98969.63
2022-11-19T03:59:02.275Z,98974.56
2022-11-19T04:01:30.272Z,98990.75
2022-11-19T04:04:15.640Z,98996.59
2022-11-19T04:06:44.993Z,99007.03
2022-11-19T04:09:13.179Z,99017.00
2022-11-19T04:11:41.130Z,99010.41
2022-11-19T04:14:09.109Z,99005.88
2022-11-19T04:16:37.021Z,99013.13
2022-11-19T04:19:04.946Z,99016.03
2022-11-19T04:21:32.926Z,99034.94
2022-11-19T04:24:02.538Z,99050.66
2022-11-19T04:26:30.508Z,99059.38
2022-11-19T04:28:58.441Z,99069.75
2022-11-19T04:31:26.413Z,99071.84
2022-11-19T04:33:54.669Z,99062.28
2022-11-19T04:36:22.737Z,99074.75
2022-11-19T04:38:50.699Z,99078.03
2022-11-19T04:41:20.024Z,99069.53
2022-11-19T04:43:47.961Z,99086.34
2022-11-19T04:46:15.952Z,99070.16
2022-11-19T04:48:43.922Z,99078.66
2022-11-19T04:51:11.890Z,99087.63
2022-11-19T04:53:39.863Z,99086.38
2022-11-19T04:56:08.627Z,99097.19
2022-11-19T04:58:38.091Z,99088.91
2022-11-19T05:01:06.164Z,99083.97
2022-11-19T05:03:34.215Z,99089.34
2022-11-19T05:06:02.195Z,99097.25
2022-11-19T05:08:30.120Z,99122.97
2022-11-19T05:10:58.010Z,99139.13
2022-11-19T05:13:25.933Z,99150.75
2022-11-19T05:15:55.233Z,99151.16
2022-11-19T05:18:23.216Z,99146.41
2022-11-19T05:20:51.142Z,99157.78
2022-11-19T05:23:19.087Z,99155.53
2022-11-19T05:25:47.118Z,99160.50
2022-11-19T05:28:15.081Z,99164.44
2022-11-19T05:30:43.065Z,99169.84
2022-11-19T05:33:12.357Z,99172.72
2022-11-19T05:35:40.308Z,99175.66
2022-11-19T05:38:08.692Z,99191.41
2022-11-19T05:40:36.617Z,99205.94
2022-11-19T05:43:05.925Z,99200.13
2022-11-19T05:45:33.904Z,99198.25
2022-11-19T05:48:01.798Z,99195.75
2022-11-19T05:50:31.122Z,99209.66
2022-11-19T05:52:59.096Z,99209.84
2022-11-19T05:55:27.043Z,99211.31
2022-11-19T05:57:54.961Z,99227.50
2022-11-19T06:00:23.073Z,99231.25
2022-11-19T06:02:51.085Z,99235.97
2022-11-19T06:05:19.080Z,99242.44
2022-11-19T06:07:48.440Z,99249.91
2022-11-19T06:10:16.559Z,99260.47
2022-11-19T06:12:45.966Z,99258.78
2022-11-19T06:15:14.288Z,99267.31
2022-11-19T06:17:42.783Z,99273.28
2022-11-19T06:20:11.490Z,99274.94
2022-11-19T06:22:39.853Z,99274.69
2022-11-19T06:25:10.059Z,99271.78
2022-11-19T06:27:38.010Z,99283.19
2022-11-19T06:30:07.065Z,99285.84
2022-11-19T06:32:35.037Z,99295.72
2022-11-19T06:35:03.064Z,99308.56
2022-11-19T06:37:31.025Z,99320.94
2022-11-19T06:39:58.966Z,99325.16
2022-11-19T06:42:37.632Z,99328.59
2022-11-19T06:45:06.411Z,99331.47
2022-11-19T06:47:34.481Z,99347.69
2022-11-19T06:50:02.472Z,99346.84
2022-11-19T06:52:30.430Z,99352.16
2022-11-19T06:54:58.327Z,99349.97
2022-11-19T06:57:26.304Z,99352.28
2022-11-19T06:59:55.576Z,99354.50
2022-11-19T07:02:23.495Z,99350.06
2022-11-19T07:04:51.398Z,99355.19
2022-11-19T07:07:19.447Z,99352.38
2022-11-19T07:09:47.425Z,99359.00
2022-11-19T07:12:15.379Z,99355.34
2022-11-19T07:14:43.336Z,99353.16
2022-11-19T07:17:12.647Z,99349.41
2022-11-19T07:19:40.914Z,99354.28
2022-11-19T07:22:08.821Z,99361.22
2022-11-19T07:24:36.826Z,99371.84
2022-11-19T07:27:04.830Z,99371.50
2022-11-19T07:29:32.728Z,99371.78
2022-11-19T07:32:00.620Z,99370.63
2022-11-19T07:34:29.925Z,99385.88
2022-11-19T07:36:57.829Z,99380.19
2022-11-19T07:39:25.737Z,99387.00
2022-11-19T07:42:10.835Z,99388.88
2022-11-19T07:44:38.757Z,99392.28
2022-11-19T07:47:07.846Z,99401.91
2022-11-19T07:49:37.816Z,99400.94
2022-11-19T07:52:06.017Z,99403.69
2022-11-19T07:54:33.935Z,99414.25
2022-11-19T07:57:01.888Z,99400.38
2022-11-19T07:59:29.829Z,99404.75
2022-11-19T08:01:57.814Z,99410.13
2022-11-19T08:04:25.818Z,99398.59
2022-11-19T08:06:55.178Z,99409.00
2022-11-19T08:09:23.150Z,99408.06
2022-11-19T08:11:51.136Z,99415.91
2022-11-19T08:14:19.046Z,99408.38
2022-11-19T08:17:04.328Z,99400.56
2022-11-19T08:19:32.272Z,99410.00
2022-11-19T08:22:01.584Z,99419.63
2022-11-19T08:24:29.525Z,99421.56
2022-11-19T08:26:57.464Z,99427.25
2022-11-19T08:29:25.433Z,99425.53
2022-11-19T08:31:53.371Z,99430.66
2022-11-19T08:34:22.318Z,99435.00
2022-11-19T08:36:50.560Z,99432.28
2022-11-19T08:39:19.862Z,99440.66
2022-11-19T08:42:05.252Z,99443.25
2022-11-19T08:44:33.210Z,99448.13
2022-11-19T08:47:01.144Z,99446.84
2022-11-19T08:49:29.070Z,99447.28
2022-11-19T08:51:57.636Z,99448.28
2022-11-19T08:54:26.960Z,99460.59
2022-11-19T08:56:54.877Z,99456.81
2022-11-19T08:59:22.936Z,99439.19
2022-11-19T09:01:51.013Z,99445.00
2022-11-19T09:04:19.334Z,99442.25
2022-11-19T09:06:47.404Z,99441.31
2022-11-19T09:09:15.326Z,99454.69
2022-11-19T09:11:44.756Z,99450.75
2022-11-19T09:14:12.681Z,99421.91
2022-11-19T09:16:40.630Z,99436.91
2022-11-19T09:19:08.545Z,99437.94
2022-11-19T09:21:36.495Z,99438.56
2022-11-19T09:24:04.691Z,99440.00
2022-11-19T09:26:32.615Z,99436.28
2022-11-19T09:29:01.928Z,99446.03
2022-11-19T09:31:29.846Z,99432.75
2022-11-19T09:33:57.751Z,99433.31
2022-11-19T09:36:25.750Z,99441.25
2022-11-19T09:38:57.376Z,99448.88
2022-11-19T09:41:44.584Z,99451.94
2022-11-19T09:44:30.251Z,99440.22
2022-11-19T09:47:02.433Z,99428.59
2022-11-19T09:49:32.079Z,99434.31
2022-11-19T09:52:00.890Z,99431.72
2022-11-19T09:54:28.856Z,99441.25
2022-11-19T09:57:00.509Z,99435.53
2022-11-19T09:59:34.764Z,99430.94
2022-11-19T10:02:02.662Z,99435.63
2022-11-19T10:04:32.066Z,99437.03
2022-11-19T10:07:06.578Z,99415.84
2022-11-19T10:09:43.658Z,99433.56
2022-11-19T10:12:19.351Z,99435.47
2022-11-19T10:14:56.075Z,99438.28
2022-11-19T10:17:29.812Z,99434.22
2022-11-19T10:20:07.802Z,99429.00
2022-11-19T10:22:38.783Z,99418.69
2022-11-19T10:25:15.603Z,99432.53
2022-11-19T10:27:46.404Z,99429.28
2022-11-19T10:30:16.484Z,99434.63
2022-11-19T10:32:55.772Z,99437.56
2022-11-19T10:35:25.421Z,99438.50
2022-11-19T10:37:55.738Z,99436.47
2022-11-19T10:40:24.427Z,99432.13
2022-11-19T10:42:53.874Z,99417.94
2022-11-19T10:45:23.810Z,99429.03
2022-11-19T10:47:53.576Z,99415.97
2022-11-19T10:50:22.456Z,99426.84
2022-11-19T10:52:52.410Z,99421.06
2022-11-19T10:55:23.301Z,99414.28
2022-11-19T10:57:51.962Z,99410.09
2022-11-19T11:00:20.261Z,99408.53
2022-11-19T11:02:52.477Z,99401.41
2022-11-19T11:05:20.576Z,99404.88
2022-11-19T11:07:51.242Z,99407.25
2022-11-19T11:10:37.039Z,99404.03
2022-11-19T11:13:32.347Z,99394.75
2022-11-19T11:16:00.315Z,99408.97
2022-11-19T11:18:29.644Z,99402.34
2022-11-19T11:20:57.545Z,99406.78
2022-11-19T11:23:26.483Z,99403.81
2022-11-19T11:25:58.015Z,99407.59
2022-11-19T11:28:26.009Z,99399.41
2022-11-19T11:30:54.888Z,99393.25
2022-11-19T11:33:35.103Z,99388.63
2022-11-19T11:36:05.626Z,99383.47
2022-11-19T11:38:33.611Z,99384.81
2022-11-19T11:44:02.388Z,99390.56
2022-11-19T11:46:39.460Z,99387.84
2022-11-19T11:49:12.902Z,99391.31
2022-11-19T11:51:40.888Z,99386.34
2022-11-19T11:54:18.445Z,99389.66
2022-11-19T11:56:46.741Z,99384.53
2022-11-19T11:59:16.272Z,99385.00
2022-11-19T12:01:44.305Z,99382.25
2022-11-19T12:04:14.310Z,99386.38
2022-11-19T12:06:46.351Z,99396.53
2022-11-19T12:09:17.501Z,99387.34
2022-11-19T12:11:57.977Z,99388.94
2022-11-19T12:14:27.012Z,99387.38
2022-11-19T12:17:02.327Z,99390.19
2022-11-19T12:19:41.219Z,99374.50
2022-11-19T12:22:12.565Z,99377.97
2022-11-19T12:24:55.777Z,99382.59
2022-11-19T12:27:26.946Z,99396.66
2022-11-19T12:29:59.516Z,99400.31
2022-11-19T12:32:39.211Z,99407.16
2022-11-19T12:35:21.120Z,99394.53
2022-11-19T12:37:59.778Z,99384.09
2022-11-19T12:40:39.677Z,99378.94
2022-11-19T12:43:14.357Z,99385.19
2022-11-19T12:45:43.487Z,99394.69
2022-11-19T12:48:35.219Z,99381.88
2022-11-19T12:51:06.922Z,99381.38
2022-11-19T12:53:47.562Z,99385.88
2022-11-19T12:56:22.431Z,99376.16
2022-11-19T12:58:54.488Z,99387.78
2022-11-19T13:01:24.378Z,99366.75
2022-11-19T13:04:00.456Z,99368.75
2022-11-19T13:06:32.202Z,99369.72
2022-11-19T13:09:00.730Z,99368.06
2022-11-19T13:11:36.362Z,99377.75
2022-11-19T13:14:06.248Z,99368.91
2022-11-19T13:16:34.429Z,99373.38
2022-11-19T13:19:09.996Z,99367.63
2022-11-19T13:21:43.257Z,99371.88
2022-11-19T13:24:18.777Z,99383.59
2022-11-19T13:26:46.694Z,99380.66
2022-11-19T13:29:24.099Z,99401.13
2022-11-19T13:31:53.385Z,99404.69
2022-11-19T13:34:23.924Z,99395.47
2022-11-19T13:36:59.409Z,99389.09
2022-11-19T13:39:29.737Z,99396.47
2022-11-19T13:42:15.298Z,99395.28
2022-11-19T13:44:43.189Z,99387.00
2022-11-19T13:47:13.765Z,99391.75
2022-11-19T13:49:43.027Z,99387.38
2022-11-19T13:52:14.529Z,99387.03
2022-11-19T13:54:43.162Z,99389.63
2022-11-19T13:57:11.137Z,99385.63
2022-11-19T13:59:39.867Z,99378.75
2022-11-19T14:02:47.761Z,99390.81
2022-11-19T14:05:38.394Z,99394.94
2022-11-19T14:08:15.142Z,99399.81
2022-11-19T14:10:45.333Z,99406.19
2022-11-19T14:13:20.545Z,99409.50
2022-11-19T14:16:11.417Z,99402.41
2022-11-19T14:18:57.892Z,99402.88
2022-11-19T14:22:05.574Z,99403.00
2022-11-19T14:25:16.572Z,99395.97
2022-11-19T14:27:44.887Z,99392.56
2022-11-19T14:30:20.600Z,99409.78
2022-11-19T14:32:50.403Z,99398.44
2022-11-19T14:35:36.653Z,99410.91
2022-11-19T14:38:23.383Z,99416.69
2022-11-19T14:41:04.202Z,99419.97
2022-11-19T14:43:49.308Z,99432.00
2022-11-19T14:46:35.249Z,99421.31
2022-11-19T14:49:05.859Z,99400.97
2022-11-19T14:51:37.241Z,99401.75
2022-11-19T14:54:08.350Z,99419.00
2022-11-19T14:56:38.514Z,99429.13
2022-11-19T14:59:11.888Z,99430.31
2022-11-19T15:01:55.294Z,99435.84
2022-11-19T15:04:24.061Z,99426.34
2022-11-19T15:06:52.242Z,99429.34
2022-11-19T15:09:53.269Z,99429.88
2022-11-19T15:12:22.741Z,99414.25
2022-11-19T15:15:10.451Z,99414.25
2022-11-19T15:17:38.473Z,99424.53
2022-11-19T15:20:21.888Z,99415.59
2022-11-19T15:22:54.117Z,99414.47
2022-11-19T15:25:33.868Z,99429.78
2022-11-19T15:28:06.660Z,99422.34
2022-11-19T15:30:45.861Z,99425.88
2022-11-19T15:33:24.158Z,99420.56
2022-11-19T15:36:09.272Z,99427.94
2022-11-19T15:38:38.324Z,99429.81
2022-11-19T15:41:06.406Z,99440.00
2022-11-19T15:43:37.829Z,99437.28
2022-11-19T15:46:07.809Z,99426.59
2022-11-19T15:48:38.511Z,99437.47
2022-11-19T15:51:06.681Z,99445.81
2022-11-19T15:53:34.721Z,99428.72
2022-11-19T15:56:04.271Z,99418.28
2022-11-19T15:58:37.600Z,99406.25
2022-11-19T16:01:05.548Z,99421.91
2022-11-19T16:03:33.495Z,99412.13
2022-11-19T16:06:03.375Z,99410.75
2022-11-19T16:08:31.369Z,99411.19
2022-11-19T16:11:25.064Z,99418.69
2022-11-19T16:14:12.056Z,99427.91
2022-11-19T16:16:57.714Z,99421.50
2022-11-19T16:19:25.698Z,99399.56
2022-11-19T16:21:55.006Z,99400.59
2022-11-19T16:24:40.117Z,99427.19
2022-11-19T16:27:10.810Z,99429.94
2022-11-19T16:29:42.891Z,99425.41
2022-11-19T16:32:14.866Z,99417.16
2022-11-19T16:34:42.785Z,99427.56
2022-11-19T16:37:12.129Z,99422.41
2022-11-19T16:39:40.066Z,99419.50
2022-11-19T16:42:17.068Z,99372.66
2022-11-19T16:44:46.977Z,99420.81
2022-11-19T16:47:16.361Z,99420.66
2022-11-19T16:49:57.280Z,99433.56
2022-11-19T16:52:41.293Z,99420.50
2022-11-19T16:55:39.656Z,99430.69
2022-11-19T16:58:15.229Z,99441.53
2022-11-19T17:00:47.305Z,99433.00
2022-11-19T17:03:35.757Z,99428.25
2022-11-19T17:06:04.611Z,99424.47
2022-11-19T17:08:33.120Z,99414.53
2022-11-19T17:11:35.041Z,99413.28
2022-11-19T17:14:20.483Z,99428.31
2022-11-19T17:16:50.953Z,99430.81
2022-11-19T17:19:27.653Z,99415.44
2022-11-19T17:21:59.516Z,99408.38
2022-11-19T17:24:28.460Z,99408.81
2022-11-19T17:26:56.578Z,99411.75
2022-11-19T17:29:24.664Z,99419.69
2022-11-19T17:31:55.613Z,99433.00
2022-11-19T17:34:27.591Z,99422.16
2022-11-19T17:36:55.537Z,99437.13
2022-11-19T17:39:25.291Z,99429.25
2022-11-19T17:42:12.648Z,99423.00
2022-11-19T17:44:40.578Z,99435.69
2022-11-19T17:47:22.906Z,99425.94
2022-11-19T17:49:51.776Z,99412.78
2022-11-19T17:52:23.957Z,99410.31
2022-11-19T17:54:52.031Z,99408.44
2022-11-19T17:57:20.001Z,99399.47
2022-11-19T17:59:47.906Z,99393.00
2022-11-19T18:02:17.768Z,99391.75
2022-11-19T18:04:45.985Z,99391.97
2022-11-19T18:07:14.071Z,99396.56
2022-11-19T18:09:42.185Z,99388.44
2022-11-19T18:12:14.649Z,99389.50
2022-11-19T18:14:42.588Z,99389.72
2022-11-19T18:17:11.877Z,99381.81
2022-11-19T18:19:41.191Z,99377.84
2022-11-19T18:22:13.997Z,99381.38
2022-11-19T18:24:41.927Z,99393.84
2022-11-19T18:27:09.860Z,99391.78
2022-11-19T18:29:38.156Z,99398.88
2022-11-19T18:32:06.638Z,99391.59
2022-11-19T18:34:35.008Z,99397.00
2022-11-19T18:37:04.385Z,99399.28
2022-11-19T18:39:32.314Z,99397.44
2022-11-19T18:42:00.234Z,99401.63
2022-11-19T18:44:36.164Z,99393.09
2022-11-19T18:47:04.825Z,99394.53
2022-11-19T18:49:33.570Z,99387.53
2022-11-19T18:52:01.801Z,99390.41
2022-11-19T18:54:31.125Z,99400.19
2022-11-19T18:56:59.031Z,99406.88
2022-11-19T18:59:26.981Z,99413.94
2022-11-19T19:01:55.929Z,99424.13
2022-11-19T19:04:24.212Z,99409.59
2022-11-19T19:06:52.213Z,99410.22
2022-11-19T19:09:20.866Z,99409.81
2022-11-19T19:12:12.549Z,99407.72
2022-11-19T19:14:41.249Z,99400.66
2022-11-19T19:17:09.281Z,99397.56
2022-11-19T19:19:37.222Z,99404.19
2022-11-19T19:22:05.813Z,99391.09
2022-11-19T19:24:33.856Z,99394.84
2022-11-19T19:27:03.199Z,99403.59
2022-11-19T19:29:31.185Z,99398.59
2022-11-19T19:31:59.399Z,99397.38
2022-11-19T19:34:27.308Z,99399.03
2022-11-19T19:36:55.340Z,99403.19
2022-11-19T19:39:23.768Z,99416.06
2022-11-19T19:41:52.144Z,99408.19
2022-11-19T19:44:21.558Z,99403.81
2022-11-19T19:46:49.689Z,99406.09
2022-11-19T19:49:17.710Z,99411.31
2022-11-19T19:51:45.674Z,99403.19
2022-11-19T19:54:13.620Z,99423.53
2022-11-19T19:56:41.599Z,99420.00
2022-11-19T19:59:10.749Z,99408.97
2022-11-19T20:01:40.147Z,99412.75
2022-11-19T20:04:08.948Z,99408.59
2022-11-19T20:06:38.247Z,99401.94
2022-11-19T20:09:08.938Z,99411.09
2022-11-19T20:11:37.376Z,99401.94
2022-11-19T20:14:05.376Z,99401.91
2022-11-19T20:16:33.634Z,99384.03
2022-11-19T20:19:03.326Z,99393.38
2022-11-19T20:21:33.942Z,99393.59
2022-11-19T20:24:04.845Z,99406.22
2022-11-19T20:26:35.289Z,99397.28
2022-11-19T20:29:04.168Z,99394.19
2022-11-19T20:31:32.209Z,99382.97
2022-11-19T20:34:02.270Z,99376.13
2022-11-19T20:36:31.338Z,99366.16
2022-11-19T20:38:59.346Z,99360.97
2022-11-19T20:41:45.082Z,99346.88
2022-11-19T20:44:23.200Z,99334.22
2022-11-19T20:46:52.778Z,99339.19
2022-11-19T20:49:23.712Z,99337.50
2022-11-19T20:51:52.719Z,99338.97
2022-11-19T20:54:21.468Z,99331.28
2022-11-19T20:56:49.502Z,99328.78
2022-11-19T20:59:17.473Z,99320.69
2022-11-19T21:01:45.541Z,99313.84
2022-11-19T21:04:13.520Z,99296.22
2022-11-19T21:06:42.834Z,99300.13
2022-11-19T21:09:10.783Z,99287.69
2022-11-19T21:11:38.806Z,99294.75
2022-11-19T21:14:07.478Z,99281.47
2022-11-19T21:16:35.457Z,99271.91
2022-11-19T21:19:03.427Z,99261.13
2022-11-19T21:21:31.380Z,99251.16
2022-11-19T21:24:00.673Z,99254.47
2022-11-19T21:26:28.819Z,99238.69
2022-11-19T21:28:57.592Z,99231.66
2022-11-19T21:31:38.314Z,99228.75
2022-11-19T21:34:07.337Z,99231.84
2022-11-19T21:36:35.312Z,99223.16
2022-11-19T21:39:04.921Z,99218.75
2022-11-19T21:41:33.192Z,99216.31
2022-11-19T21:44:01.190Z,99216.69
2022-11-19T21:46:29.178Z,99208.00
2022-11-19T21:48:57.100Z,99197.22
2022-11-19T21:51:25.513Z,99190.16
2022-11-19T21:53:55.151Z,99184.13
2022-11-19T21:56:24.549Z,99187.25
2022-11-19T21:58:52.524Z,99192.66
2022-11-19T22:01:20.516Z,99191.81
2022-11-19T22:03:48.563Z,99191.00
2022-11-19T22:06:16.490Z,99186.00
2022-11-19T22:08:44.478Z,99190.97
2022-11-19T22:11:31.175Z,99184.78
2022-11-19T22:14:01.969Z,99171.69
2022-11-19T22:16:29.933Z,99161.94
2022-11-19T22:18:57.899Z,99167.97
2022-11-19T22:21:26.407Z,99159.47
2022-11-19T22:23:54.340Z,99155.09
2022-11-19T22:26:22.274Z,99155.31
2022-11-19T22:28:50.157Z,99140.16
2022-11-19T22:31:19.512Z,99149.91
2022-11-19T22:33:49.763Z,99158.00
2022-11-19T22:36:17.778Z,99143.91
2022-11-19T22:38:45.693Z,99131.25
2022-11-19T22:41:14.964Z,99121.72
2022-11-19T22:43:42.965Z,99121.31
2022-11-19T22:46:11.828Z,99098.47
2022-11-19T22:48:41.205Z,99102.34
2022-11-19T22:51:10.181Z,99106.00
2022-11-19T22:53:38.282Z,99104.44
2022-11-19T22:56:07.580Z,99124.03
2022-11-19T22:58:35.585Z,99106.78
2022-11-19T23:01:03.771Z,99110.31
2022-11-19T23:03:31.740Z,99108.69
2022-11-19T23:06:01.093Z,99125.88
2022-11-19T23:08:29.062Z,99107.13
2022-11-19T23:11:00.257Z,99089.78
2022-11-19T23:13:34.526Z,99108.84
2022-11-19T23:16:04.289Z,99112.66
2022-11-19T23:18:33.803Z,99102.41
2022-11-19T23:21:04.633Z,99115.72
2022-11-19T23:23:32.649Z,99107.63
2022-11-19T23:26:01.344Z,99110.16
2022-11-19T23:28:29.428Z,99117.03
2022-11-19T23:30:57.418Z,99113.22
2022-11-19T23:33:25.363Z,99121.56
2022-11-19T23:35:53.290Z,99130.03
2022-11-19T23:38:22.603Z,99122.97
2022-11-19T23:40:58.512Z,99120.53
2022-11-19T23:43:26.533Z,99096.97
2022-11-19T23:45:54.542Z,99105.53
2022-11-19T23:48:22.499Z,99110.81
2022-11-19T23:50:50.426Z,99114.94
2022-11-19T23:53:18.353Z,99121.34
2022-11-19T23:55:50.461Z,99104.16
2022-11-19T23:58:18.380Z,99113.34
